Weather Data

Pearl Creek Farm: 8878 N Farm Road 75, Walnut Grove MO 65770

<== Previous Day (Saturday 16 Apr 2016) | Next Day (Monday 18 Apr 2016) ==>

Summary Precipitation Data For Sunday 17 April 2016

ElementValueUnits
Precipitation0"
Notes(none)
SourcePearl Creek Farm

Summary Temperature Data For Sunday 17 April 2016

ElementValueUnits
High Temperature75 oF
Low Temperature62 oF
Average Temperature68 oF
High Humidity80 %
Low Humidity45 %
Average Humidity62 %
SourceSpringfield-Branson National Airport (SGF)

Detail Temperature Data For Sunday 17 April 2016

Date / TimeTemp (F)RH (%)Dew Pt (F)Report Date / TimeSource
2016-04-17 00:52:00 62 78 55.0 2017-12-29 17:00:26.17417 Springfield-Branson National Airport (SGF)
2016-04-17 01:52:00 63 75 55.0 2017-12-29 17:00:26.17417 Springfield-Branson National Airport (SGF)
2016-04-17 02:52:00 63 75 55.0 2017-12-29 17:00:26.17417 Springfield-Branson National Airport (SGF)
2016-04-17 03:52:00 62 78 55.0 2017-12-29 17:00:26.17417 Springfield-Branson National Airport (SGF)
2016-04-17 04:52:00 62 78 55.0 2017-12-29 17:00:26.17417 Springfield-Branson National Airport (SGF)
2016-04-17 05:52:00 62 78 55.0 2017-12-29 17:00:26.17417 Springfield-Branson National Airport (SGF)
2016-04-17 06:52:00 62 80 56.0 2017-12-29 17:00:26.17417 Springfield-Branson National Airport (SGF)
2016-04-17 07:52:00 65 73 56.0 2017-12-29 17:00:26.17417 Springfield-Branson National Airport (SGF)
2016-04-17 08:52:00 68 65 56.0 2017-12-29 17:00:26.17417 Springfield-Branson National Airport (SGF)
2016-04-17 09:52:00 70 61 56.0 2017-12-29 17:00:26.17417 Springfield-Branson National Airport (SGF)
2016-04-17 10:52:00 72 55 55.0 2017-12-29 17:00:26.17417 Springfield-Branson National Airport (SGF)
2016-04-17 11:52:00 73 51 54.0 2017-12-29 17:00:26.17417 Springfield-Branson National Airport (SGF)
2016-04-17 12:52:00 74 46 52.0 2017-12-29 17:00:26.17417 Springfield-Branson National Airport (SGF)
2016-04-17 13:52:00 75 46 53.0 2017-12-29 17:00:26.17417 Springfield-Branson National Airport (SGF)
2016-04-17 14:52:00 75 45 52.0 2017-12-29 17:00:26.17417 Springfield-Branson National Airport (SGF)
2016-04-17 15:52:00 73 50 53.0 2017-12-29 17:00:26.17417 Springfield-Branson National Airport (SGF)
2016-04-17 16:52:00 73 48 52.0 2017-12-29 17:00:26.17417 Springfield-Branson National Airport (SGF)
2016-04-17 17:52:00 72 52 53.0 2017-12-29 17:00:26.17417 Springfield-Branson National Airport (SGF)
2016-04-17 18:52:00 70 55 53.0 2017-12-29 17:00:26.17417 Springfield-Branson National Airport (SGF)
2016-04-17 19:52:00 70 55 53.0 2017-12-29 17:00:26.17417 Springfield-Branson National Airport (SGF)
2016-04-17 20:52:00 68 59 53.0 2017-12-29 17:00:26.17417 Springfield-Branson National Airport (SGF)
2016-04-17 21:52:00 68 59 53.0 2017-12-29 17:00:26.17417 Springfield-Branson National Airport (SGF)
2016-04-17 22:52:00 67 59 52.0 2017-12-29 17:00:26.17417 Springfield-Branson National Airport (SGF)
2016-04-17 23:52:00 66 61 52.0 2017-12-29 17:00:26.17417 Springfield-Branson National Airport (SGF)

A total of 24 rows are displayed.